createdAt,value
2017-12-29T00:00:37.452Z,0
2017-12-29T00:01:37.241Z,0
2017-12-29T00:02:37.149Z,0
2017-12-29T00:03:37.158Z,0
2017-12-29T00:04:37.396Z,0
2017-12-29T00:05:37.101Z,0
2017-12-29T00:06:37.350Z,0
2017-12-29T00:07:37.611Z,0
2017-12-29T00:08:37.061Z,0
2017-12-29T00:09:37.279Z,0
2017-12-29T00:10:36.982Z,0
2017-12-29T00:11:36.966Z,0
2017-12-29T00:12:37.240Z,0
2017-12-29T00:13:36.921Z,0
2017-12-29T00:14:37.191Z,0
2017-12-29T00:15:36.924Z,0
2017-12-29T00:16:37.698Z,0
2017-12-29T00:17:36.846Z,0
2017-12-29T00:18:37.154Z,0
2017-12-29T00:19:36.817Z,0
2017-12-29T00:20:37.067Z,0
2017-12-29T00:21:36.771Z,0
2017-12-29T00:22:37.058Z,0
2017-12-29T00:23:36.985Z,0
2017-12-29T00:24:37.313Z,0
2017-12-29T00:25:36.981Z,0
2017-12-29T00:26:36.677Z,0
2017-12-29T00:27:36.914Z,0
2017-12-29T00:28:37.168Z,0
2017-12-29T00:29:36.872Z,0
2017-12-29T00:30:37.158Z,0
2017-12-29T00:31:36.861Z,0
2017-12-29T00:32:36.543Z,0
2017-12-29T00:33:36.534Z,0
2017-12-29T00:34:36.993Z,0
2017-12-29T00:35:36.519Z,0
2017-12-29T00:36:36.733Z,0
2017-12-29T00:37:36.435Z,0
2017-12-29T00:38:36.420Z,0
2017-12-29T00:39:36.709Z,0
2017-12-29T00:40:36.364Z,0
2017-12-29T00:41:36.637Z,0
2017-12-29T00:42:36.619Z,0
2017-12-29T00:43:36.613Z,0
2017-12-29T00:44:36.837Z,0
2017-12-29T00:45:37.129Z,0
2017-12-29T00:46:36.292Z,0
2017-12-29T00:47:36.485Z,0
2017-12-29T00:48:36.481Z,0
2017-12-29T00:49:36.200Z,0
2017-12-29T00:50:36.186Z,0
2017-12-29T00:51:36.433Z,0
2017-12-29T00:52:36.402Z,0
2017-12-29T00:53:36.116Z,0
2017-12-29T00:54:36.111Z,0
2017-12-29T00:55:36.084Z,0
2017-12-29T00:56:36.602Z,0
2017-12-29T00:57:36.024Z,0
2017-12-29T00:58:35.999Z,0
2017-12-29T00:59:36.526Z,0
2017-12-29T01:00:36.235Z,0
2017-12-29T01:01:36.218Z,0
2017-12-29T01:02:36.203Z,0
2017-12-29T01:03:36.187Z,0
2017-12-29T01:04:36.156Z,0
2017-12-29T01:05:36.696Z,0
2017-12-29T01:06:35.846Z,0
2017-12-29T01:07:35.824Z,0
2017-12-29T01:08:36.081Z,0
2017-12-29T01:09:36.327Z,0
2017-12-29T01:10:36.311Z,0
2017-12-29T01:11:36.575Z,0
2017-12-29T01:12:35.996Z,0
2017-12-29T01:13:35.706Z,0
2017-12-29T01:14:35.686Z,0
2017-12-29T01:15:35.658Z,0
2017-12-29T01:16:36.189Z,0
2017-12-29T01:17:36.167Z,0
2017-12-29T01:18:35.879Z,0
2017-12-29T01:19:35.858Z,0
2017-12-29T01:20:35.837Z,0
2017-12-29T01:21:35.543Z,0
2017-12-29T01:22:36.080Z,0
2017-12-29T01:23:36.051Z,0
2017-12-29T01:24:35.777Z,0
2017-12-29T01:25:35.740Z,0
2017-12-29T01:26:35.720Z,0
2017-12-29T01:27:35.422Z,0
2017-12-29T01:28:35.713Z,0
2017-12-29T01:29:35.664Z,0
2017-12-29T01:30:35.927Z,0
2017-12-29T01:31:35.894Z,0
2017-12-29T01:32:35.595Z,0
2017-12-29T01:33:35.597Z,0
2017-12-29T01:34:35.287Z,0
2017-12-29T01:35:35.271Z,0
2017-12-29T01:36:35.514Z,0
2017-12-29T01:37:35.505Z,0
2017-12-29T01:38:35.232Z,0
2017-12-29T01:39:35.460Z,0
2017-12-29T01:40:35.726Z,0
2017-12-29T01:41:35.150Z,0
2017-12-29T01:42:35.671Z,0
2017-12-29T01:43:35.375Z,0
2017-12-29T01:44:35.103Z,0
2017-12-29T01:45:35.342Z,0
2017-12-29T01:46:35.073Z,0
2017-12-29T01:47:35.329Z,0
2017-12-29T01:48:35.602Z,0
2017-12-29T01:49:35.267Z,0
2017-12-29T01:50:35.245Z,0
2017-12-29T01:51:34.966Z,0
2017-12-29T01:52:35.748Z,0
2017-12-29T01:53:35.468Z,0
2017-12-29T01:54:34.889Z,0
2017-12-29T01:55:35.157Z,0
2017-12-29T01:56:34.848Z,0
2017-12-29T01:57:35.104Z,0
2017-12-29T01:58:35.369Z,0
2017-12-29T01:59:35.358Z,0
2017-12-29T02:00:35.040Z,0
2017-12-29T02:01:35.669Z,0
2017-12-29T02:02:35.483Z,0
2017-12-29T02:03:35.213Z,0
2017-12-29T02:04:35.318Z,0
2017-12-29T02:05:35.203Z,0
2017-12-29T02:06:34.929Z,0
2017-12-29T02:07:34.660Z,0
2017-12-29T02:08:35.198Z,0
2017-12-29T02:09:34.658Z,0
2017-12-29T02:10:34.947Z,0
2017-12-29T02:11:34.864Z,0
2017-12-29T02:12:34.563Z,0
2017-12-29T02:13:34.807Z,0
2017-12-29T02:14:34.515Z,0
2017-12-29T02:15:34.494Z,0
2017-12-29T02:16:34.785Z,0
2017-12-29T02:17:34.452Z,0
2017-12-29T02:18:34.958Z,0
2017-12-29T02:19:34.941Z,0
2017-12-29T02:20:34.368Z,0
2017-12-29T02:21:34.369Z,0
2017-12-29T02:22:34.336Z,0
2017-12-29T02:23:34.582Z,0
2017-12-29T02:24:34.315Z,0
2017-12-29T02:25:34.270Z,0
2017-12-29T02:26:34.789Z,0
2017-12-29T02:27:34.520Z,0
2017-12-29T02:28:34.791Z,0
2017-12-29T02:29:35.034Z,0
2017-12-29T02:30:34.665Z,0
2017-12-29T02:31:35.021Z,0
2017-12-29T02:32:34.499Z,0
2017-12-29T02:33:34.752Z,0
2017-12-29T02:34:34.678Z,0
2017-12-29T02:35:34.913Z,0
2017-12-29T02:36:34.380Z,0
2017-12-29T02:37:34.316Z,0
2017-12-29T02:38:34.574Z,0
2017-12-29T02:39:34.328Z,0
2017-12-29T02:40:34.596Z,0
2017-12-29T02:41:34.709Z,0
2017-12-29T02:42:34.642Z,0
2017-12-29T02:43:34.625Z,0
2017-12-29T02:44:34.790Z,0
2017-12-29T02:45:34.761Z,0
2017-12-29T02:46:34.401Z,0
2017-12-29T02:47:34.452Z,0
2017-12-29T02:48:34.459Z,0
2017-12-29T02:49:34.346Z,0
2017-12-29T02:50:34.066Z,0
2017-12-29T02:51:33.773Z,0
2017-12-29T02:52:33.740Z,0
2017-12-29T02:53:33.719Z,0
2017-12-29T02:54:34.515Z,0
2017-12-29T02:55:33.955Z,0
2017-12-29T02:56:33.945Z,0
2017-12-29T02:57:34.199Z,0
2017-12-29T02:58:33.909Z,0
2017-12-29T02:59:33.603Z,0
2017-12-29T03:00:33.592Z,0
2017-12-29T03:01:33.563Z,0
2017-12-29T03:02:34.088Z,0
2017-12-29T03:03:33.521Z,0
2017-12-29T03:04:33.774Z,0
2017-12-29T03:05:33.750Z,0
2017-12-29T03:06:33.482Z,0
2017-12-29T03:07:34.002Z,0
2017-12-29T03:08:33.975Z,0
2017-12-29T03:09:33.411Z,0
2017-12-29T03:10:33.661Z,0
2017-12-29T03:11:33.370Z,0
2017-12-29T03:12:33.901Z,0
2017-12-29T03:13:33.332Z,0
2017-12-29T03:14:33.586Z,0
2017-12-29T03:15:33.855Z,0
2017-12-29T03:16:33.547Z,0
2017-12-29T03:17:33.516Z,0
2017-12-29T03:18:33.245Z,0
2017-12-29T03:19:33.762Z,0
2017-12-29T03:20:33.730Z,0
2017-12-29T03:21:33.173Z,0
2017-12-29T03:22:33.173Z,0
2017-12-29T03:23:33.725Z,0
2017-12-29T03:24:33.414Z,0
2017-12-29T03:25:33.092Z,0
2017-12-29T03:26:33.366Z,0
2017-12-29T03:27:33.320Z,0
2017-12-29T03:28:33.305Z,0
2017-12-29T03:29:33.023Z,0
2017-12-29T03:30:33.286Z,0
2017-12-29T03:31:32.978Z,0
2017-12-29T03:32:33.539Z,0
2017-12-29T03:33:32.940Z,0
2017-12-29T03:34:33.200Z,0
2017-12-29T03:35:32.892Z,0
2017-12-29T03:36:33.167Z,0
2017-12-29T03:37:33.154Z,0
2017-12-29T03:38:33.175Z,0
2017-12-29T03:39:32.816Z,0
2017-12-29T03:40:33.073Z,0
2017-12-29T03:41:32.783Z,0
2017-12-29T03:42:33.036Z,0
2017-12-29T03:43:33.041Z,0
2017-12-29T03:44:32.720Z,0
2017-12-29T03:45:33.260Z,0
2017-12-29T03:46:33.245Z,0
2017-12-29T03:47:32.661Z,0
2017-12-29T03:48:32.929Z,0
2017-12-29T03:49:32.914Z,0
2017-12-29T03:50:33.146Z,0
2017-12-29T03:51:32.596Z,0
2017-12-29T03:52:33.162Z,0
2017-12-29T03:53:32.818Z,0
2017-12-29T03:54:32.805Z,0
2017-12-29T03:55:32.511Z,0
2017-12-29T03:56:32.760Z,0
2017-12-29T03:57:32.470Z,0
2017-12-29T03:58:32.721Z,0
2017-12-29T03:59:32.701Z,0
2017-12-29T04:00:32.683Z,0
2017-12-29T04:01:32.387Z,0
2017-12-29T04:02:32.644Z,0
2017-12-29T04:03:32.894Z,0
2017-12-29T04:04:32.340Z,0
2017-12-29T04:05:32.580Z,0
2017-12-29T04:06:32.571Z,0
2017-12-29T04:07:32.561Z,0
2017-12-29T04:08:32.551Z,0
2017-12-29T04:09:33.067Z,0
2017-12-29T04:10:32.235Z,0
2017-12-29T04:11:32.745Z,0
2017-12-29T04:12:32.178Z,0
2017-12-29T04:13:32.161Z,0
2017-12-29T04:14:32.431Z,0
2017-12-29T04:15:32.123Z,0
2017-12-29T04:16:32.373Z,0
2017-12-29T04:17:32.636Z,0
2017-12-29T04:18:32.335Z,0
2017-12-29T04:19:32.310Z,0
2017-12-29T04:20:32.571Z,0
2017-12-29T04:21:32.007Z,0
2017-12-29T04:22:31.986Z,0
2017-12-29T04:23:32.232Z,0
2017-12-29T04:24:32.218Z,0
2017-12-29T04:25:32.198Z,0
2017-12-29T04:26:32.451Z,0
2017-12-29T04:27:32.163Z,0
2017-12-29T04:28:31.896Z,0
2017-12-29T04:29:32.674Z,0
2017-12-29T04:30:32.111Z,0
2017-12-29T04:31:32.355Z,0
2017-12-29T04:32:31.823Z,0
2017-12-29T04:33:33.253Z,0
2017-12-29T04:34:32.038Z,0
2017-12-29T04:35:32.195Z,0
2017-12-29T04:36:31.936Z,0
2017-12-29T04:37:31.700Z,0
2017-12-29T04:38:31.960Z,0
2017-12-29T04:39:31.930Z,0
2017-12-29T04:40:31.903Z,0
2017-12-29T04:41:31.899Z,0
2017-12-29T04:42:31.601Z,0
2017-12-29T04:43:32.396Z,0
2017-12-29T04:44:31.836Z,0
2017-12-29T04:45:32.083Z,0
2017-12-29T04:46:31.791Z,0
2017-12-29T04:47:32.044Z,0
2017-12-29T04:48:32.317Z,0
2017-12-29T04:49:31.735Z,0
2017-12-29T04:50:31.450Z,0
2017-12-29T04:51:31.720Z,0
2017-12-29T04:52:31.679Z,0
2017-12-29T04:53:31.388Z,0
2017-12-29T04:54:31.647Z,0
2017-12-29T04:55:31.642Z,0
2017-12-29T04:56:31.337Z,0
2017-12-29T04:57:31.578Z,0
2017-12-29T04:58:31.558Z,0
2017-12-29T04:59:31.265Z,0
2017-12-29T05:00:31.819Z,0
2017-12-29T05:01:31.243Z,0
2017-12-29T05:02:31.210Z,0
2017-12-29T05:03:31.758Z,0
2017-12-29T05:04:31.447Z,0
2017-12-29T05:05:31.159Z,0
2017-12-29T05:06:31.689Z,0
2017-12-29T05:07:31.384Z,0
2017-12-29T05:08:31.369Z,0
2017-12-29T05:09:31.375Z,0
2017-12-29T05:10:31.069Z,0
2017-12-29T05:11:31.608Z,0
2017-12-29T05:12:31.292Z,0
2017-12-29T05:13:31.285Z,0
2017-12-29T05:14:31.253Z,0
2017-12-29T05:15:31.543Z,0
2017-12-29T05:16:31.226Z,0
2017-12-29T05:17:30.932Z,0
2017-12-29T05:18:30.901Z,0
2017-12-29T05:19:31.711Z,0
2017-12-29T05:20:31.410Z,0
2017-12-29T05:21:31.382Z,0
2017-12-29T05:22:31.097Z,0
2017-12-29T05:23:31.361Z,0
2017-12-29T05:24:30.801Z,0
2017-12-29T05:25:30.787Z,0
2017-12-29T05:26:30.751Z,0
2017-12-29T05:27:30.753Z,0
2017-12-29T05:28:31.276Z,0
2017-12-29T05:29:30.691Z,0
2017-12-29T05:30:31.218Z,0
2017-12-29T05:31:30.655Z,0
2017-12-29T05:32:30.636Z,0
2017-12-29T05:33:30.617Z,0
2017-12-29T05:34:30.897Z,0
2017-12-29T05:35:30.870Z,0
2017-12-29T05:36:30.828Z,0
2017-12-29T05:37:30.807Z,0
2017-12-29T05:38:30.521Z,0
2017-12-29T05:39:31.054Z,0
2017-12-29T05:40:30.483Z,0
2017-12-29T05:41:30.459Z,0
2017-12-29T05:42:30.711Z,0
2017-12-29T05:43:30.422Z,0
2017-12-29T05:44:30.412Z,0
2017-12-29T05:45:30.392Z,0
2017-12-29T05:46:30.917Z,0
2017-12-29T05:47:30.618Z,0
2017-12-29T05:48:30.893Z,0
2017-12-29T05:49:30.868Z,0
2017-12-29T05:50:31.111Z,0
2017-12-29T05:51:30.546Z,0
2017-12-29T05:52:30.811Z,0
2017-12-29T05:53:30.232Z,0
2017-12-29T05:54:30.482Z,0
2017-12-29T05:55:30.748Z,0
2017-12-29T05:56:30.446Z,0
2017-12-29T05:57:30.692Z,0
2017-12-29T05:58:30.403Z,0
2017-12-29T05:59:30.390Z,0
2017-12-29T06:00:30.367Z,0
2017-12-29T06:01:30.075Z,0
2017-12-29T06:02:30.350Z,0
2017-12-29T06:03:30.322Z,0
2017-12-29T06:04:30.291Z,0
2017-12-29T06:05:30.275Z,0
2017-12-29T06:06:30.536Z,0
2017-12-29T06:07:30.234Z,0
2017-12-29T06:08:30.213Z,0
2017-12-29T06:09:29.946Z,0
2017-12-29T06:10:29.904Z,0
2017-12-29T06:11:30.159Z,0
2017-12-29T06:12:30.400Z,0
2017-12-29T06:13:29.846Z,0
2017-12-29T06:14:30.094Z,0
2017-12-29T06:15:29.814Z,0
2017-12-29T06:16:30.276Z,0
2017-12-29T06:17:30.315Z,0
2017-12-29T06:18:29.792Z,0
2017-12-29T06:19:30.278Z,0
2017-12-29T06:20:30.604Z,0
2017-12-29T06:21:29.704Z,0
2017-12-29T06:22:30.219Z,0
2017-12-29T06:23:30.196Z,0
2017-12-29T06:24:29.632Z,0
2017-12-29T06:25:30.170Z,0
2017-12-29T06:26:29.607Z,0
2017-12-29T06:27:30.215Z,0
2017-12-29T06:28:29.572Z,0
2017-12-29T06:29:30.107Z,0
2017-12-29T06:30:29.789Z,0
2017-12-29T06:31:29.768Z,0
2017-12-29T06:32:30.042Z,0
2017-12-29T06:33:29.563Z,0
2017-12-29T06:34:29.725Z,0
2017-12-29T06:35:29.694Z,0
2017-12-29T06:36:29.676Z,0
2017-12-29T06:37:29.434Z,0
2017-12-29T06:38:29.646Z,4
2017-12-29T06:39:29.885Z,4
2017-12-29T06:40:29.351Z,4
2017-12-29T06:41:29.858Z,0
2017-12-29T06:42:29.288Z,4
2017-12-29T06:43:29.808Z,4
2017-12-29T06:44:30.076Z,4
2017-12-29T06:45:29.234Z,4
2017-12-29T06:46:29.225Z,4
2017-12-29T06:47:29.762Z,8
2017-12-29T06:48:29.456Z,8
2017-12-29T06:49:29.437Z,8
2017-12-29T06:50:29.688Z,12
2017-12-29T06:51:29.118Z,16
2017-12-29T06:52:29.637Z,16
2017-12-29T06:53:29.348Z,20
2017-12-29T06:54:29.329Z,24
2017-12-29T06:55:29.310Z,24
2017-12-29T06:56:29.310Z,28
2017-12-29T06:57:29.272Z,32
2017-12-29T06:58:29.256Z,32
2017-12-29T06:59:29.592Z,32
2017-12-29T07:00:29.207Z,40
2017-12-29T07:01:29.533Z,44
2017-12-29T07:02:28.913Z,48
2017-12-29T07:03:29.702Z,56
2017-12-29T07:04:28.864Z,64
2017-12-29T07:05:29.130Z,68
2017-12-29T07:06:29.371Z,72
2017-12-29T07:07:29.357Z,72
2017-12-29T07:08:29.336Z,76
2017-12-29T07:09:28.775Z,80
2017-12-29T07:10:29.021Z,88
2017-12-29T07:11:28.733Z,100
2017-12-29T07:12:29.253Z,92
2017-12-29T07:13:28.692Z,92
2017-12-29T07:14:29.210Z,96
2017-12-29T07:15:28.669Z,108
2017-12-29T07:16:28.864Z,116
2017-12-29T07:17:29.160Z,132
2017-12-29T07:18:28.615Z,140
2017-12-29T07:19:28.596Z,152
2017-12-29T07:20:29.301Z,148
2017-12-29T07:21:28.562Z,160
2017-12-29T07:22:29.064Z,176
2017-12-29T07:23:28.533Z,184
2017-12-29T07:24:28.753Z,224
2017-12-29T07:25:28.732Z,248
2017-12-29T07:26:28.440Z,240
2017-12-29T07:27:28.425Z,268
2017-12-29T07:28:28.675Z,280
2017-12-29T07:29:28.659Z,328
2017-12-29T07:30:28.373Z,372
2017-12-29T07:31:28.642Z,380
2017-12-29T07:32:28.872Z,356
2017-12-29T07:33:28.581Z,344
2017-12-29T07:34:28.560Z,372
2017-12-29T07:35:28.269Z,392
2017-12-29T07:36:28.256Z,392
2017-12-29T07:37:28.776Z,492
2017-12-29T07:38:28.480Z,484
2017-12-29T07:39:28.468Z,476
2017-12-29T07:40:28.181Z,548
2017-12-29T07:41:28.429Z,644
2017-12-29T07:42:28.404Z,688
2017-12-29T07:43:28.128Z,708
2017-12-29T07:44:28.100Z,820
2017-12-29T07:45:28.928Z,808
2017-12-29T07:46:28.060Z,780
2017-12-29T07:47:28.312Z,840
2017-12-29T07:48:28.296Z,872
2017-12-29T07:49:28.555Z,860
2017-12-29T07:50:27.979Z,976
2017-12-29T07:51:28.238Z,992
2017-12-29T07:52:28.220Z,1000
2017-12-29T07:53:28.195Z,988
2017-12-29T07:54:27.907Z,1080
2017-12-29T07:55:28.436Z,1160
2017-12-29T07:56:28.406Z,1196
2017-12-29T07:57:28.400Z,1308
2017-12-29T07:58:28.115Z,1416
2017-12-29T07:59:28.353Z,1368
2017-12-29T08:00:28.197Z,1376
2017-12-29T08:01:28.070Z,1388
2017-12-29T08:02:28.310Z,1304
2017-12-29T08:03:28.013Z,1284
2017-12-29T08:04:27.720Z,1216
2017-12-29T08:05:27.695Z,1208
2017-12-29T08:06:28.226Z,1300
2017-12-29T08:07:27.934Z,1332
2017-12-29T08:08:27.927Z,1380
2017-12-29T08:09:28.480Z,1336
2017-12-29T08:10:28.161Z,1460
2017-12-29T08:11:27.611Z,1516
2017-12-29T08:12:27.860Z,1624
2017-12-29T08:13:28.095Z,1684
2017-12-29T08:14:28.075Z,1700
2017-12-29T08:15:28.332Z,1628
2017-12-29T08:16:27.491Z,1616
2017-12-29T08:17:27.757Z,1720
2017-12-29T08:18:27.728Z,1856
2017-12-29T08:19:27.761Z,2080
2017-12-29T08:20:27.413Z,2168
2017-12-29T08:21:27.670Z,2356
2017-12-29T08:22:27.649Z,2464
2017-12-29T08:23:27.900Z,2412
2017-12-29T08:24:27.879Z,2284
2017-12-29T08:25:27.870Z,2124
2017-12-29T08:26:27.572Z,1872
2017-12-29T08:27:27.293Z,1552
2017-12-29T08:28:27.271Z,1484
2017-12-29T08:29:27.531Z,1396
2017-12-29T08:30:27.242Z,1388
2017-12-29T08:31:27.207Z,1440
2017-12-29T08:32:27.731Z,1604
2017-12-29T08:33:28.096Z,1948
2017-12-29T08:34:27.169Z,1784
2017-12-29T08:35:27.129Z,1656
2017-12-29T08:36:27.390Z,1720
2017-12-29T08:37:27.659Z,1864
2017-12-29T08:38:27.369Z,1972
2017-12-29T08:39:27.601Z,2268
2017-12-29T08:40:27.322Z,2184
2017-12-29T08:41:27.581Z,2020
2017-12-29T08:42:27.545Z,1936
2017-12-29T08:43:26.982Z,1880
2017-12-29T08:44:27.245Z,1996
2017-12-29T08:45:26.947Z,2208
2017-12-29T08:46:27.205Z,2288
2017-12-29T08:47:27.389Z,1992
2017-12-29T08:48:26.897Z,1836
2017-12-29T08:49:26.869Z,1884
2017-12-29T08:50:27.121Z,2012
2017-12-29T08:51:26.830Z,1932
2017-12-29T08:52:27.357Z,1864
2017-12-29T08:53:26.822Z,1736
2017-12-29T08:54:27.040Z,1696
2017-12-29T08:55:27.315Z,1712
2017-12-29T08:56:27.014Z,1732
2017-12-29T08:57:27.280Z,1836
2017-12-29T08:58:26.714Z,1796
2017-12-29T08:59:26.680Z,1896
2017-12-29T09:00:26.661Z,1792
2017-12-29T09:01:26.923Z,1732
2017-12-29T09:02:27.171Z,1596
2017-12-29T09:03:26.895Z,1616
2017-12-29T09:04:26.882Z,1756
2017-12-29T09:05:26.574Z,1896
2017-12-29T09:06:26.559Z,2192
2017-12-29T09:07:26.547Z,2064
2017-12-29T09:08:26.518Z,2232
2017-12-29T09:09:26.770Z,2232
2017-12-29T09:10:27.018Z,2440
2017-12-29T09:11:27.009Z,2596
2017-12-29T09:12:26.440Z,2428
2017-12-29T09:13:26.716Z,2108
2017-12-29T09:14:26.698Z,2032
2017-12-29T09:15:26.673Z,2400
2017-12-29T09:16:26.640Z,2580
2017-12-29T09:17:26.368Z,2904
2017-12-29T09:18:26.925Z,3040
2017-12-29T09:19:26.594Z,3316
2017-12-29T09:20:26.592Z,3568
2017-12-29T09:21:26.552Z,2844
2017-12-29T09:22:26.535Z,2768
2017-12-29T09:23:26.511Z,3020
2017-12-29T09:24:26.264Z,3128
2017-12-29T09:25:27.017Z,2952
2017-12-29T09:26:26.728Z,3072
2017-12-29T09:27:26.186Z,3032
2017-12-29T09:28:26.144Z,3112
2017-12-29T09:29:26.395Z,3204
2017-12-29T09:31:26.641Z,3544
2017-12-29T09:32:26.069Z,3628
2017-12-29T09:33:26.051Z,3716
2017-12-29T09:34:26.308Z,3860
2017-12-29T09:35:26.287Z,3920
2017-12-29T09:36:26.013Z,4092
2017-12-29T09:37:26.251Z,4388
2017-12-29T09:38:25.958Z,4148
2017-12-29T09:39:25.944Z,3300
2017-12-29T09:40:25.933Z,3316
2017-12-29T09:41:25.902Z,3552
2017-12-29T09:42:25.884Z,3596
2017-12-29T09:43:25.872Z,3840
2017-12-29T09:44:26.392Z,4268
2017-12-29T09:45:26.104Z,4480
2017-12-29T09:46:25.812Z,4720
2017-12-29T09:47:26.083Z,4388
2017-12-29T09:48:25.773Z,4632
2017-12-29T09:49:26.228Z,4884
2017-12-29T09:50:26.275Z,5108
2017-12-29T09:51:26.000Z,5988
2017-12-29T09:52:25.972Z,6620
2017-12-29T09:53:26.224Z,6016
2017-12-29T09:54:26.208Z,5420
2017-12-29T09:55:25.921Z,5008
2017-12-29T09:56:25.628Z,5204
2017-12-29T09:57:25.629Z,5700
2017-12-29T09:58:26.420Z,6484
2017-12-29T09:59:26.129Z,6420
2017-12-29T10:00:25.831Z,6288
2017-12-29T10:01:25.554Z,7224
2017-12-29T10:02:25.519Z,7328
2017-12-29T10:03:25.777Z,6344
2017-12-29T10:04:26.316Z,6144
2017-12-29T10:05:25.743Z,5572
2017-12-29T10:06:25.447Z,7768
2017-12-29T10:07:25.438Z,6088
2017-12-29T10:08:25.420Z,6400
2017-12-29T10:09:25.668Z,6424
2017-12-29T10:10:25.387Z,5692
2017-12-29T10:11:25.371Z,4732
2017-12-29T10:12:25.890Z,4176
2017-12-29T10:13:25.628Z,3672
2017-12-29T10:14:25.322Z,3332
2017-12-29T10:15:25.575Z,5236
2017-12-29T10:16:26.238Z,4100
2017-12-29T10:17:25.553Z,3548
2017-12-29T10:18:25.523Z,4152
2017-12-29T10:19:25.556Z,3840
2017-12-29T10:20:25.215Z,4348
2017-12-29T10:21:25.500Z,6192
2017-12-29T10:22:25.495Z,4364
2017-12-29T10:23:25.723Z,6268
2017-12-29T10:24:25.166Z,4696
2017-12-29T10:25:25.391Z,5048
2017-12-29T10:26:25.403Z,5400
2017-12-29T10:27:25.362Z,7460
2017-12-29T10:28:25.328Z,5692
2017-12-29T10:29:25.625Z,5120
2017-12-29T10:30:25.322Z,6176
2017-12-29T10:31:25.279Z,7224
2017-12-29T10:32:25.030Z,4632
2017-12-29T10:33:25.537Z,5572
2017-12-29T10:34:25.238Z,3896
2017-12-29T10:35:25.225Z,4204
2017-12-29T10:36:25.241Z,5280
2017-12-29T10:37:24.907Z,7544
2017-12-29T10:38:25.209Z,7360
2017-12-29T10:39:25.269Z,5736
2017-12-29T10:40:25.117Z,5528
2017-12-29T10:41:24.828Z,5912
2017-12-29T10:42:25.140Z,5368
2017-12-29T10:43:25.117Z,4236
2017-12-29T10:44:25.053Z,4224
2017-12-29T10:45:25.026Z,4544
2017-12-29T10:46:25.275Z,5004
2017-12-29T10:47:25.327Z,5760
2017-12-29T10:48:25.060Z,5584
2017-12-29T10:49:25.559Z,5924
2017-12-29T10:50:24.950Z,5624
2017-12-29T10:51:24.660Z,5552
2017-12-29T10:52:24.660Z,6252
2017-12-29T10:53:25.249Z,5028
2017-12-29T10:54:24.605Z,5860
2017-12-29T10:55:24.907Z,5632
2017-12-29T10:56:25.417Z,5464
2017-12-29T10:57:24.578Z,5368
2017-12-29T10:58:25.403Z,5216
2017-12-29T10:59:25.360Z,5672
2017-12-29T11:00:24.802Z,5424
2017-12-29T11:01:24.484Z,5704
2017-12-29T11:02:24.497Z,5468
2017-12-29T11:03:24.808Z,5960
2017-12-29T11:04:24.991Z,6160
2017-12-29T11:05:24.975Z,5732
2017-12-29T11:06:24.411Z,5060
2017-12-29T11:07:24.383Z,5452
2017-12-29T11:08:24.638Z,5124
2017-12-29T11:09:24.633Z,5280
2017-12-29T11:10:24.584Z,5100
2017-12-29T11:11:24.563Z,4412
2017-12-29T11:12:24.558Z,4216
2017-12-29T11:13:24.566Z,4504
2017-12-29T11:14:24.565Z,4644
2017-12-29T11:15:24.779Z,4512
2017-12-29T11:16:24.749Z,4312
2017-12-29T11:17:24.466Z,4020
2017-12-29T11:18:24.163Z,3472
2017-12-29T11:19:24.467Z,3308
2017-12-29T11:20:25.365Z,3612
2017-12-29T11:21:24.729Z,4388
2017-12-29T11:22:24.483Z,4824
2017-12-29T11:23:24.374Z,5252
2017-12-29T11:24:24.448Z,4452
2017-12-29T11:25:24.582Z,4052
2017-12-29T11:26:24.502Z,4312
2017-12-29T11:27:24.305Z,4372
2017-12-29T11:28:24.271Z,3980
2017-12-29T11:29:24.512Z,4020
2017-12-29T11:30:24.223Z,4008
2017-12-29T11:31:24.481Z,4364
2017-12-29T11:32:23.922Z,4904
2017-12-29T11:33:23.899Z,5428
2017-12-29T11:34:23.895Z,6340
2017-12-29T11:35:23.865Z,6200
2017-12-29T11:36:23.860Z,5228
2017-12-29T11:37:24.100Z,5608
2017-12-29T11:38:24.090Z,6560
2017-12-29T11:39:23.797Z,6628
2017-12-29T11:40:24.049Z,5968
2017-12-29T11:41:24.302Z,5928
2017-12-29T11:42:24.011Z,5496
2017-12-29T11:43:24.001Z,5344
2017-12-29T11:44:23.975Z,4672
2017-12-29T11:45:23.959Z,4156
2017-12-29T11:46:23.667Z,4136
2017-12-29T11:47:27.251Z,3856
2017-12-29T11:48:23.904Z,3936
2017-12-29T11:49:23.882Z,3884
2017-12-29T11:50:24.149Z,3892
2017-12-29T11:51:23.598Z,4404
2017-12-29T11:52:23.839Z,5548
2017-12-29T11:53:24.098Z,5516
2017-12-29T11:54:23.525Z,5072
2017-12-29T11:55:23.780Z,4876
2017-12-29T11:56:23.762Z,4368
2017-12-29T11:57:23.750Z,4336
2017-12-29T11:58:24.298Z,4860
2017-12-29T11:59:23.706Z,4500
2017-12-29T12:00:23.709Z,4540
2017-12-29T12:01:23.420Z,5904
2017-12-29T12:02:23.385Z,5448
2017-12-29T12:03:23.366Z,4860
2017-12-29T12:04:23.617Z,5024
2017-12-29T12:05:23.334Z,5916
2017-12-29T12:06:23.601Z,6372
2017-12-29T12:07:23.568Z,6576
2017-12-29T12:08:23.816Z,6364
2017-12-29T12:09:23.264Z,6160
2017-12-29T12:10:23.540Z,6684
2017-12-29T12:11:23.789Z,6292
2017-12-29T12:12:23.744Z,5796
2017-12-29T12:13:23.471Z,5324
2017-12-29T12:14:23.444Z,5168
2017-12-29T12:15:23.711Z,5100
2017-12-29T12:16:23.421Z,6200
2017-12-29T12:17:23.132Z,6280
2017-12-29T12:18:23.373Z,5576
2017-12-29T12:19:23.630Z,5928
2017-12-29T12:20:23.105Z,6188
2017-12-29T12:21:23.372Z,5368
2017-12-29T12:22:23.603Z,5160
2017-12-29T12:23:23.562Z,4884
2017-12-29T12:24:23.285Z,4684
2017-12-29T12:25:23.553Z,4240
2017-12-29T12:26:23.798Z,4316
2017-12-29T12:27:23.218Z,4056
2017-12-29T12:28:23.217Z,3872
2017-12-29T12:29:22.911Z,3936
2017-12-29T12:30:23.438Z,4060
2017-12-29T12:31:23.146Z,4068
2017-12-29T12:32:22.878Z,3864
2017-12-29T12:33:23.107Z,4376
2017-12-29T12:34:23.111Z,4804
2017-12-29T12:35:23.071Z,4504
2017-12-29T12:36:22.788Z,4164
2017-12-29T12:37:23.043Z,4296
2017-12-29T12:38:22.762Z,4648
2017-12-29T12:39:23.589Z,5004
2017-12-29T12:40:22.986Z,5360
2017-12-29T12:41:23.262Z,5948
2017-12-29T12:42:22.958Z,5720
2017-12-29T12:43:23.205Z,5416
2017-12-29T12:44:23.189Z,5028
2017-12-29T12:45:22.662Z,5384
2017-12-29T12:46:22.921Z,4852
2017-12-29T12:47:22.596Z,4276
2017-12-29T12:48:22.602Z,4372
2017-12-29T12:49:22.844Z,4456
2017-12-29T12:50:22.816Z,4764
2017-12-29T12:51:22.528Z,4384
2017-12-29T12:52:22.538Z,4200
2017-12-29T12:53:22.769Z,4388
2017-12-29T12:54:24.201Z,4308
2017-12-29T12:55:22.469Z,4024
2017-12-29T12:56:23.280Z,4032
2017-12-29T12:57:22.684Z,4256
2017-12-29T12:58:22.402Z,4512
2017-12-29T12:59:22.656Z,4832
2017-12-29T13:00:22.633Z,4752
2017-12-29T13:01:22.349Z,4648
2017-12-29T13:02:22.337Z,5100
2017-12-29T13:03:22.598Z,5160
2017-12-29T13:04:22.312Z,5124
2017-12-29T13:05:22.574Z,4016
2017-12-29T13:06:22.541Z,2988
2017-12-29T13:07:22.595Z,2360
2017-12-29T13:08:22.506Z,2304
2017-12-29T13:09:22.491Z,2480
2017-12-29T13:10:22.461Z,2924
2017-12-29T13:11:22.730Z,3412
2017-12-29T13:12:22.155Z,3084
2017-12-29T13:13:22.136Z,2820
2017-12-29T13:14:22.417Z,2684
2017-12-29T13:15:22.126Z,3004
2017-12-29T13:16:22.353Z,3052
2017-12-29T13:17:22.357Z,2768
2017-12-29T13:18:22.588Z,2420
2017-12-29T13:19:22.031Z,2460
2017-12-29T13:20:22.602Z,2352
2017-12-29T13:21:21.999Z,2388
2017-12-29T13:22:22.538Z,2180
2017-12-29T13:23:22.226Z,2172
2017-12-29T13:24:21.935Z,2176
2017-12-29T13:25:22.197Z,2112
2017-12-29T13:26:22.445Z,2032
2017-12-29T13:27:21.898Z,2012
2017-12-29T13:28:22.046Z,1992
2017-12-29T13:29:22.447Z,1984
2017-12-29T13:30:22.103Z,1956
2017-12-29T13:31:22.087Z,1940
2017-12-29T13:32:22.072Z,1936
2017-12-29T13:33:22.054Z,1932
2017-12-29T13:34:22.032Z,1924
2017-12-29T13:35:22.008Z,1928
2017-12-29T13:36:21.996Z,1924
2017-12-29T13:37:21.968Z,1928
2017-12-29T13:38:21.684Z,1760
2017-12-29T13:39:21.658Z,1796
2017-12-29T13:40:22.279Z,1776
2017-12-29T13:41:21.624Z,1720
2017-12-29T13:42:21.878Z,1860
2017-12-29T13:43:21.591Z,1884
2017-12-29T13:44:22.119Z,1836
2017-12-29T13:45:21.844Z,1828
2017-12-29T13:46:21.532Z,1784
2017-12-29T13:47:21.533Z,1764
2017-12-29T13:48:21.497Z,1748
2017-12-29T13:49:22.020Z,1732
2017-12-29T13:50:22.056Z,1688
2017-12-29T13:51:22.010Z,1624
2017-12-29T13:52:21.430Z,1640
2017-12-29T13:53:21.690Z,1584
2017-12-29T13:54:21.669Z,1580
2017-12-29T13:55:21.687Z,1564
2017-12-29T13:56:21.934Z,1556
2017-12-29T13:57:21.884Z,1604
2017-12-29T13:58:21.575Z,1596
2017-12-29T13:59:21.566Z,1628
2017-12-29T14:00:21.570Z,1544
2017-12-29T14:01:21.258Z,1564
2017-12-29T14:02:21.787Z,1660
2017-12-29T14:03:21.767Z,2000